Time;durP1;ratioP1;P1;durP2;ratioP2;P2;SDS_P1;SDS_P2;PMS_P1;PMS_P2;Temp;Humidity;BMP_temperature;BMP_pressure;BME280_temperature;BME280_humidity;BME280_pressure;Samples;Min_cycle;Max_cycle;Signal;HPM_P1;HPM_P2
2022/04/06 00:01:35;;;;;;;;;;;9.50;99.90;;;;;;4305972;33;45974;-90
2022/04/06 00:04:03;;;;;;;;;;;9.50;99.90;;;;;;4306481;33;44804;-90
2022/04/06 00:06:31;;;;;;;;;;;9.50;99.90;;;;;;4305779;33;44040;-91
2022/04/06 00:09:16;;;;;;;;;;;9.50;99.90;;;;;;4308032;33;44812;-91
2022/04/06 00:11:43;;;;;;;;;;;9.50;99.90;;;;;;4306234;33;45142;-90
2022/04/06 00:14:10;;;;;;;;;;;9.50;99.90;;;;;;4306034;33;44872;-90
2022/04/06 00:16:37;;;;;;;;;;;9.50;99.90;;;;;;4305998;33;44958;-90
2022/04/06 00:19:05;;;;;;;;;;;9.50;99.90;;;;;;4306098;33;43621;-90
2022/04/06 00:21:32;;;;;;;;;;;9.50;99.90;;;;;;4318760;33;43181;-91
2022/04/06 00:23:59;;;;;;;;;;;9.50;99.90;;;;;;4305548;33;44291;-91
2022/04/06 00:26:26;;;;;;;;;;;9.50;99.90;;;;;;4305733;33;44279;-91
2022/04/06 00:28:53;;;;;;;;;;;9.50;99.90;;;;;;4305470;33;42651;-90
2022/04/06 00:31:20;;;;;;;;;;;9.50;99.90;;;;;;4305979;33;44016;-91
2022/04/06 00:33:47;;;;;;;;;;;9.50;99.90;;;;;;4305643;33;44196;-91
2022/04/06 00:36:14;;;;;;;;;;;9.50;99.90;;;;;;4305624;33;42974;-91
2022/04/06 00:38:41;;;;;;;;;;;9.50;99.90;;;;;;4318811;33;44280;-91
2022/04/06 00:41:08;;;;;;;;;;;9.50;99.90;;;;;;4306170;33;45724;-92
2022/04/06 00:43:35;;;;;;;;;;;9.50;99.90;;;;;;4319143;33;45882;-92
2022/04/06 00:46:03;;;;;;;;;;;9.50;99.90;;;;;;4305613;33;42862;-91
2022/04/06 00:48:30;;;;;;;;;;;9.50;99.90;;;;;;4319114;33;44147;-92
2022/04/06 00:50:57;;;;;;;;;;;9.50;99.90;;;;;;4305883;33;44941;-91
2022/04/06 00:53:24;;;;;;;;;;;9.50;99.90;;;;;;4305704;33;43792;-91
2022/04/06 00:55:53;;;;;;;;;;;9.50;99.90;;;;;;4318912;33;43124;-92
2022/04/06 00:58:20;;;;;;;;;;;9.50;99.90;;;;;;4305924;33;44768;-92
2022/04/06 01:00:47;;;;;;;;;;;9.50;99.90;;;;;;4305893;33;45866;-93
2022/04/06 01:03:14;;;;;;;;;;;9.50;99.90;;;;;;4305280;33;46259;-92
2022/04/06 01:05:42;;;;;;;;;;;9.50;99.90;;;;;;4318739;33;46019;-92
2022/04/06 01:08:11;;;;;;;;;;;9.50;99.90;;;;;;4318415;33;43904;-93
2022/04/06 01:10:39;;;;;;;;;;;9.50;99.90;;;;;;4305308;33;45435;-91
2022/04/06 01:13:06;;;;;;;;;;;9.50;99.90;;;;;;4305140;33;45873;-92
2022/04/06 01:15:34;;;;;;;;;;;9.50;99.90;;;;;;4318670;33;44516;-93
2022/04/06 01:18:01;;;;;;;;;;;9.50;99.90;;;;;;4305563;33;44713;-91
2022/04/06 01:20:29;;;;;;;;;;;9.50;99.90;;;;;;4319024;33;42543;-92
2022/04/06 01:22:56;;;;;;;;;;;9.50;99.90;;;;;;4318440;33;44937;-92
2022/04/06 01:25:26;;;;;;;;;;;9.50;99.90;;;;;;4305582;33;44294;-92
2022/04/06 01:27:53;;;;;;;;;;;9.40;99.90;;;;;;4305061;33;45719;-90
2022/04/06 01:30:20;;;;;;;;;;;9.50;99.90;;;;;;4304783;33;44298;-90
2022/04/06 01:32:47;;;;;;;;;;;9.50;99.90;;;;;;4305147;33;44868;-91
2022/04/06 01:35:15;;;;;;;;;;;9.40;99.90;;;;;;4305193;33;45210;-90
2022/04/06 01:37:42;;;;;;;;;;;9.40;99.90;;;;;;4305091;33;45716;-91
2022/04/06 01:40:10;;;;;;;;;;;9.40;99.90;;;;;;4304296;33;44290;-91
2022/04/06 01:42:37;;;;;;;;;;;9.40;99.90;;;;;;4317723;33;44014;-90
2022/04/06 01:45:04;;;;;;;;;;;9.40;99.90;;;;;;4304848;33;45821;-91
2022/04/06 01:47:31;;;;;;;;;;;9.40;99.90;;;;;;4305201;33;44807;-91
2022/04/06 01:52:44;;;;;;;;;;;9.40;99.90;;;;;;4317387;33;43062;-91
2022/04/06 01:55:13;;;;;;;;;;;9.40;99.90;;;;;;4305277;33;19990;-89
2022/04/06 01:57:40;;;;;;;;;;;9.40;99.90;;;;;;4303997;33;44756;-90
2022/04/06 02:00:09;;;;;;;;;;;9.40;99.90;;;;;;4304466;33;45723;-89
2022/04/06 02:02:37;;;;;;;;;;;9.40;99.90;;;;;;4303821;33;44021;-88
2022/04/06 02:05:05;;;;;;;;;;;9.40;99.90;;;;;;4303935;33;45677;-88
2022/04/06 02:07:32;;;;;;;;;;;9.40;99.90;;;;;;4303321;33;44048;-89
2022/04/06 02:10:00;;;;;;;;;;;9.40;99.90;;;;;;4316905;33;43259;-89
2022/04/06 02:12:28;;;;;;;;;;;9.40;99.90;;;;;;4303957;33;45762;-90
2022/04/06 02:14:56;;;;;;;;;;;9.40;99.90;;;;;;4304195;33;45931;-90
2022/04/06 02:17:25;;;;;;;;;;;9.40;99.90;;;;;;4304011;33;43087;-90
2022/04/06 02:19:52;;;;;;;;;;;9.40;99.90;;;;;;4304490;33;43015;-90
2022/04/06 02:22:20;;;;;;;;;;;9.40;99.90;;;;;;4317224;33;45897;-90
2022/04/06 02:24:47;;;;;;;;;;;9.40;99.90;;;;;;4317575;33;46375;-90
2022/04/06 02:27:14;;;;;;;;;;;9.40;99.90;;;;;;4317247;33;43268;-90
2022/04/06 02:29:41;;;;;;;;;;;9.40;99.90;;;;;;4304764;33;44805;-91
2022/04/06 02:32:08;;;;;;;;;;;9.40;99.90;;;;;;4304285;33;44021;-89
2022/04/06 02:34:36;;;;;;;;;;;9.40;99.90;;;;;;4304408;33;45690;-90
2022/04/06 02:37:03;;;;;;;;;;;9.40;99.90;;;;;;4304332;33;43859;-90
2022/04/06 02:39:30;;;;;;;;;;;9.30;99.90;;;;;;4303888;33;42521;-90
2022/04/06 02:41:58;;;;;;;;;;;9.30;99.90;;;;;;4303952;33;44998;-91
2022/04/06 02:44:25;;;;;;;;;;;9.30;99.90;;;;;;4317562;33;45922;-91
2022/04/06 02:46:52;;;;;;;;;;;9.30;99.90;;;;;;4317043;33;45055;-91
2022/04/06 02:49:19;;;;;;;;;;;9.30;99.90;;;;;;4304532;33;44738;-91
2022/04/06 02:51:46;;;;;;;;;;;9.30;99.90;;;;;;4305458;33;44040;-90
2022/04/06 02:54:13;;;;;;;;;;;9.40;99.90;;;;;;4320316;33;43904;-91
2022/04/06 02:56:40;;;;;;;;;;;9.30;99.90;;;;;;4307096;33;43023;-91
2022/04/06 02:59:07;;;;;;;;;;;9.30;99.90;;;;;;4307670;33;44528;-91
2022/04/06 03:01:34;;;;;;;;;;;9.30;99.90;;;;;;4306938;33;43913;-92
2022/04/06 03:04:02;;;;;;;;;;;9.30;99.90;;;;;;4307521;33;45702;-91
2022/04/06 03:06:29;;;;;;;;;;;9.30;99.90;;;;;;4307320;33;44852;-91
2022/04/06 03:08:56;;;;;;;;;;;9.30;99.90;;;;;;4307382;33;45163;-91
2022/04/06 03:11:23;;;;;;;;;;;9.30;99.90;;;;;;4307192;33;42244;-92
2022/04/06 03:13:51;;;;;;;;;;;9.30;99.90;;;;;;4307319;33;43631;-92
2022/04/06 03:16:18;;;;;;;;;;;9.30;99.90;;;;;;4307058;33;43323;-91
2022/04/06 03:18:45;;;;;;;;;;;9.30;99.90;;;;;;4307142;33;42317;-92
2022/04/06 03:21:13;;;;;;;;;;;9.30;99.90;;;;;;4307291;33;43187;-91
2022/04/06 03:23:40;;;;;;;;;;;9.30;99.90;;;;;;4320140;33;44258;-91
2022/04/06 03:26:08;;;;;;;;;;;9.30;99.90;;;;;;4307744;33;20010;-91
2022/04/06 03:28:38;;;;;;;;;;;9.30;99.90;;;;;;4306771;33;45707;-92
2022/04/06 03:31:05;;;;;;;;;;;9.30;99.90;;;;;;4306772;33;45729;-92
2022/04/06 03:33:32;;;;;;;;;;;9.30;99.90;;;;;;4306910;33;43086;-91
2022/04/06 03:36:00;;;;;;;;;;;9.30;99.90;;;;;;4306941;33;44287;-91
2022/04/06 03:38:27;;;;;;;;;;;9.30;99.90;;;;;;4306749;33;43259;-91
2022/04/06 03:40:54;;;;;;;;;;;9.30;99.90;;;;;;4320030;33;45845;-91
2022/04/06 03:43:21;;;;;;;;;;;9.30;99.90;;;;;;4306827;33;44726;-91
2022/04/06 03:45:49;;;;;;;;;;;9.20;99.90;;;;;;4306615;33;43639;-91
2022/04/06 03:48:16;;;;;;;;;;;9.30;99.90;;;;;;4319704;33;43341;-91
2022/04/06 03:50:44;;;;;;;;;;;9.20;99.90;;;;;;4306394;33;43185;-92
2022/04/06 03:53:11;;;;;;;;;;;9.20;99.90;;;;;;4319575;33;45752;-92
2022/04/06 03:55:38;;;;;;;;;;;9.20;99.90;;;;;;4306296;33;44949;-91
2022/04/06 03:58:06;;;;;;;;;;;9.20;99.90;;;;;;4306298;33;44630;-92
2022/04/06 04:00:34;;;;;;;;;;;9.20;99.90;;;;;;4306774;33;44023;-91
2022/04/06 04:03:01;;;;;;;;;;;9.20;99.90;;;;;;4305436;33;43546;-92
2022/04/06 04:05:29;;;;;;;;;;;9.20;99.90;;;;;;4306607;33;46036;-93
2022/04/06 04:07:56;;;;;;;;;;;9.20;99.90;;;;;;4306794;33;44467;-92
2022/04/06 04:10:23;;;;;;;;;;;9.20;99.90;;;;;;4306651;33;44990;-92
2022/04/06 04:12:50;;;;;;;;;;;9.20;99.90;;;;;;4306143;33;45683;-91
2022/04/06 04:15:17;;;;;;;;;;;9.20;99.90;;;;;;4306603;33;44294;-91
2022/04/06 04:17:44;;;;;;;;;;;9.20;99.90;;;;;;4306225;33;45126;-90
2022/04/06 04:20:11;;;;;;;;;;;9.20;99.90;;;;;;4306184;33;45815;-92
2022/04/06 04:22:38;;;;;;;;;;;9.20;99.90;;;;;;4319215;33;42776;-91
2022/04/06 04:25:06;;;;;;;;;;;9.20;99.90;;;;;;4305859;33;45771;-92
2022/04/06 04:27:33;;;;;;;;;;;9.20;99.90;;;;;;4305792;33;46022;-91
2022/04/06 04:30:00;;;;;;;;;;;9.20;99.90;;;;;;4319252;33;43986;-91
2022/04/06 04:32:33;;;;;;;;;;;9.20;99.90;;;;;;4306931;33;43817;-92
2022/04/06 04:35:05;;;;;;;;;;;9.20;99.90;;;;;;4319020;33;42537;-91
2022/04/06 04:37:32;;;;;;;;;;;9.20;99.90;;;;;;4305864;33;45587;-91
2022/04/06 04:40:00;;;;;;;;;;;9.20;99.90;;;;;;4305717;33;43033;-90
2022/04/06 04:42:27;;;;;;;;;;;9.20;99.90;;;;;;4318598;33;44845;-91
2022/04/06 04:44:54;;;;;;;;;;;9.20;99.90;;;;;;4305887;33;45684;-91
2022/04/06 04:47:21;;;;;;;;;;;9.10;99.90;;;;;;4305546;33;45019;-91
2022/04/06 04:49:48;;;;;;;;;;;9.10;99.90;;;;;;4305374;33;44626;-90
2022/04/06 04:52:15;;;;;;;;;;;9.10;99.90;;;;;;4305882;33;43877;-90
2022/04/06 04:54:43;;;;;;;;;;;9.20;99.90;;;;;;4318447;33;44953;-91
2022/04/06 04:57:10;;;;;;;;;;;9.10;99.90;;;;;;4305441;33;43450;-91
2022/04/06 04:59:37;;;;;;;;;;;9.10;99.90;;;;;;4305613;33;46081;-90
2022/04/06 05:02:04;;;;;;;;;;;9.10;99.90;;;;;;4305040;33;45024;-91
2022/04/06 05:04:31;;;;;;;;;;;9.20;99.90;;;;;;4305337;33;44826;-91
2022/04/06 05:06:58;;;;;;;;;;;9.10;99.90;;;;;;4305520;33;43218;-90
2022/04/06 05:09:25;;;;;;;;;;;9.10;99.90;;;;;;4305378;33;43159;-89
2022/04/06 05:11:52;;;;;;;;;;;9.10;99.90;;;;;;4305620;33;44117;-90
2022/04/06 05:14:19;;;;;;;;;;;9.10;99.90;;;;;;4318373;33;44890;-91
2022/04/06 05:16:47;;;;;;;;;;;9.10;99.90;;;;;;4317980;33;44895;-91
2022/04/06 05:19:14;;;;;;;;;;;9.10;99.90;;;;;;4304892;33;44125;-91
2022/04/06 05:21:41;;;;;;;;;;;9.10;99.90;;;;;;4305115;33;44220;-90
2022/04/06 05:24:08;;;;;;;;;;;9.10;99.90;;;;;;4304671;33;43975;-90
2022/04/06 05:26:40;;;;;;;;;;;9.10;99.90;;;;;;4305760;33;44238;-91
2022/04/06 05:29:07;;;;;;;;;;;9.10;99.90;;;;;;4317762;33;43309;-91
2022/04/06 05:31:35;;;;;;;;;;;9.10;99.90;;;;;;4304625;33;45051;-90
2022/04/06 05:34:02;;;;;;;;;;;9.00;99.90;;;;;;4305174;33;45506;-90
2022/04/06 05:36:29;;;;;;;;;;;9.10;99.90;;;;;;4305170;33;45950;-90
2022/04/06 05:38:57;;;;;;;;;;;9.10;99.90;;;;;;4304819;33;45039;-90
2022/04/06 05:41:24;;;;;;;;;;;9.10;99.90;;;;;;4304692;33;44773;-90
2022/04/06 05:43:51;;;;;;;;;;;9.00;99.90;;;;;;4304299;33;45648;-90
2022/04/06 05:46:19;;;;;;;;;;;9.00;99.90;;;;;;4304824;33;43436;-90
2022/04/06 05:48:46;;;;;;;;;;;9.10;99.90;;;;;;4304338;33;44084;-90
2022/04/06 05:51:13;;;;;;;;;;;9.10;99.90;;;;;;4317237;33;42616;-89
2022/04/06 05:53:40;;;;;;;;;;;9.00;99.90;;;;;;4304446;33;44765;-90
2022/04/06 05:56:07;;;;;;;;;;;9.00;99.90;;;;;;4304234;33;45715;-89
2022/04/06 05:58:34;;;;;;;;;;;9.00;99.90;;;;;;4304448;33;45658;-89
2022/04/06 06:01:01;;;;;;;;;;;9.00;99.90;;;;;;4317508;33;44583;-89
2022/04/06 06:03:28;;;;;;;;;;;9.00;99.90;;;;;;4303867;33;45224;-90
2022/04/06 06:05:56;;;;;;;;;;;9.00;99.90;;;;;;4304150;33;45888;-90
2022/04/06 06:08:23;;;;;;;;;;;9.00;99.90;;;;;;4304290;33;43406;-90
2022/04/06 06:10:50;;;;;;;;;;;9.00;99.90;;;;;;4302413;33;44817;-90
2022/04/06 06:13:17;;;;;;;;;;;9.00;99.90;;;;;;4289565;33;42936;-89
2022/04/06 06:15:44;;;;;;;;;;;9.00;99.90;;;;;;4302729;33;43133;-90
2022/04/06 06:18:12;;;;;;;;;;;9.00;99.90;;;;;;4289728;33;43279;-90
2022/04/06 06:20:39;;;;;;;;;;;9.00;99.90;;;;;;4289151;33;45979;-89
2022/04/06 06:23:06;;;;;;;;;;;9.00;99.90;;;;;;4302678;33;45119;-89
2022/04/06 06:25:33;;;;;;;;;;;9.00;99.90;;;;;;4302060;33;44878;-89
2022/04/06 06:28:00;;;;;;;;;;;9.00;99.90;;;;;;4303495;33;20046;-90
2022/04/06 06:30:27;;;;;;;;;;;9.00;99.90;;;;;;4289370;33;44343;-90
2022/04/06 06:32:55;;;;;;;;;;;9.00;99.90;;;;;;4289451;33;43313;-89
2022/04/06 06:35:23;;;;;;;;;;;9.00;99.90;;;;;;4289647;33;45913;-91
2022/04/06 06:37:52;;;;;;;;;;;8.90;99.90;;;;;;4290112;33;44225;-90
2022/04/06 06:40:20;;;;;;;;;;;8.90;99.90;;;;;;4289313;33;45689;-90
2022/04/06 06:42:47;;;;;;;;;;;8.90;99.90;;;;;;4302189;33;44343;-90
2022/04/06 06:45:14;;;;;;;;;;;8.90;99.90;;;;;;4302669;33;45152;-90
2022/04/06 06:47:41;;;;;;;;;;;8.90;99.90;;;;;;4289850;33;44219;-90
2022/04/06 06:50:09;;;;;;;;;;;8.90;99.90;;;;;;4289690;33;45891;-90
2022/04/06 06:52:37;;;;;;;;;;;8.90;99.90;;;;;;4289499;33;43470;-90
2022/04/06 06:55:11;;;;;;;;;;;8.90;99.90;;;;;;4290695;33;45342;-90
2022/04/06 06:57:38;;;;;;;;;;;8.90;99.90;;;;;;4290012;33;44224;-91
2022/04/06 07:00:05;;;;;;;;;;;8.90;99.90;;;;;;4289468;33;44968;-92
2022/04/06 07:02:32;;;;;;;;;;;8.90;99.90;;;;;;4289738;33;45102;-90
2022/04/06 07:05:00;;;;;;;;;;;8.90;99.90;;;;;;4289890;33;44980;-91
2022/04/06 07:07:27;;;;;;;;;;;9.00;99.90;;;;;;4289505;33;44094;-92
2022/04/06 07:09:54;;;;;;;;;;;8.90;99.90;;;;;;4302465;33;43030;-91
2022/04/06 07:12:21;;;;;;;;;;;8.90;99.90;;;;;;4289778;33;44929;-91
2022/04/06 07:14:54;;;;;;;;;;;8.90;99.90;;;;;;4290597;33;45946;-91
2022/04/06 07:17:23;;;;;;;;;;;8.90;99.90;;;;;;4289783;33;44634;-92
2022/04/06 07:19:51;;;;;;;;;;;8.90;99.90;;;;;;4289854;33;43002;-92
2022/04/06 07:22:18;;;;;;;;;;;8.90;99.90;;;;;;4289493;33;44941;-92
2022/04/06 07:24:45;;;;;;;;;;;8.90;99.90;;;;;;4302345;33;44822;-90
2022/04/06 07:27:16;;;;;;;;;;;8.90;99.90;;;;;;4290319;33;44578;-90
2022/04/06 07:29:44;;;;;;;;;;;8.90;99.90;;;;;;4289661;33;46193;-92
2022/04/06 07:32:11;;;;;;;;;;;8.90;99.90;;;;;;4289677;33;45162;-91
2022/04/06 07:34:38;;;;;;;;;;;8.90;99.90;;;;;;4289053;33;45979;-90
2022/04/06 07:37:05;;;;;;;;;;;8.90;99.90;;;;;;4302115;33;43757;-91
2022/04/06 07:39:32;;;;;;;;;;;8.90;99.90;;;;;;4304494;33;42535;-91
2022/04/06 07:41:59;;;;;;;;;;;8.90;99.90;;;;;;4305091;33;44240;-90
2022/04/06 07:44:26;;;;;;;;;;;8.90;99.90;;;;;;4304955;33;45025;-91
2022/04/06 07:46:54;;;;;;;;;;;8.90;99.90;;;;;;4305729;33;44481;-90
2022/04/06 07:49:21;;;;;;;;;;;8.90;99.90;;;;;;4305835;33;44558;-90
2022/04/06 07:51:48;;;;;;;;;;;8.90;99.90;;;;;;4305967;33;44873;-91
2022/04/06 07:54:15;;;;;;;;;;;8.90;99.90;;;;;;4319325;33;43351;-89
2022/04/06 07:56:42;;;;;;;;;;;8.90;99.90;;;;;;4306276;33;44196;-89
2022/04/06 07:59:09;;;;;;;;;;;8.90;99.90;;;;;;4305785;33;43320;-89
2022/04/06 08:01:36;;;;;;;;;;;8.90;99.90;;;;;;4305692;33;44407;-90
2022/04/06 08:04:04;;;;;;;;;;;8.90;99.90;;;;;;4306106;33;44851;-90
2022/04/06 08:06:31;;;;;;;;;;;8.90;99.90;;;;;;4305264;33;43525;-89
2022/04/06 08:08:59;;;;;;;;;;;8.90;99.90;;;;;;4305381;33;44947;-89
2022/04/06 08:11:26;;;;;;;;;;;8.90;99.90;;;;;;4305599;33;45756;-89
2022/04/06 08:13:53;;;;;;;;;;;8.90;99.90;;;;;;4305846;33;44162;-89
2022/04/06 08:16:21;;;;;;;;;;;8.90;99.90;;;;;;4305580;33;43777;-89
2022/04/06 08:18:48;;;;;;;;;;;8.90;99.90;;;;;;4304883;33;42512;-88
2022/04/06 08:21:15;;;;;;;;;;;8.90;99.90;;;;;;4305000;33;44631;-88
2022/04/06 08:23:42;;;;;;;;;;;8.90;99.90;;;;;;4317868;33;45765;-89
2022/04/06 08:26:09;;;;;;;;;;;8.90;99.90;;;;;;4305177;33;44929;-88
2022/04/06 08:28:37;;;;;;;;;;;8.90;99.90;;;;;;4304581;33;45656;-88
2022/04/06 08:31:05;;;;;;;;;;;9.00;99.90;;;;;;4305093;33;46055;-89
2022/04/06 08:33:32;;;;;;;;;;;8.90;99.90;;;;;;4304922;33;44066;-88
2022/04/06 08:36:00;;;;;;;;;;;9.00;99.90;;;;;;4304764;33;45108;-88
2022/04/06 08:38:27;;;;;;;;;;;9.00;99.90;;;;;;4317899;33;42893;-87
2022/04/06 08:40:55;;;;;;;;;;;9.00;99.90;;;;;;4304813;33;43425;-88
2022/04/06 08:43:23;;;;;;;;;;;9.00;99.90;;;;;;4305191;33;43898;-89
2022/04/06 08:45:50;;;;;;;;;;;9.00;99.90;;;;;;4304818;33;42511;-88
2022/04/06 08:48:19;;;;;;;;;;;9.00;99.90;;;;;;4318187;33;44143;-89
2022/04/06 08:50:47;;;;;;;;;;;9.00;99.90;;;;;;4304281;33;44453;-88
2022/04/06 08:53:15;;;;;;;;;;;9.00;99.90;;;;;;4317333;33;44536;-89
2022/04/06 08:55:43;;;;;;;;;;;9.00;99.90;;;;;;4304764;33;44150;-89
2022/04/06 08:58:10;;;;;;;;;;;9.00;99.90;;;;;;4304310;33;44793;-88
2022/04/06 09:00:37;;;;;;;;;;;9.00;99.90;;;;;;4317502;33;43359;-89
2022/04/06 09:03:06;;;;;;;;;;;9.00;99.90;;;;;;4304174;33;43486;-89
2022/04/06 09:05:34;;;;;;;;;;;9.10;99.90;;;;;;4304392;33;44918;-88
2022/04/06 09:08:03;;;;;;;;;;;9.10;99.90;;;;;;4304820;33;45429;-89
2022/04/06 09:10:33;;;;;;;;;;;9.10;99.90;;;;;;4304522;33;43301;-89
2022/04/06 09:13:12;;;;;;;;;;;9.10;99.90;;;;;;4317530;33;42752;-88
2022/04/06 09:15:41;;;;;;;;;;;9.10;99.90;;;;;;4304413;33;43931;-89
2022/04/06 09:18:08;;;;;;;;;;;9.10;99.90;;;;;;4304626;33;46085;-89
2022/04/06 09:20:35;;;;;;;;;;;9.10;99.90;;;;;;4317277;33;43312;-89
2022/04/06 09:23:03;;;;;;;;;;;9.10;99.90;;;;;;4304060;33;43564;-89
2022/04/06 09:25:34;;;;;;;;;;;9.10;99.90;;;;;;4304543;33;44960;-88
2022/04/06 09:28:19;;;;;;;;;;;9.10;99.90;;;;;;4304261;33;44823;-88
2022/04/06 09:30:46;;;;;;;;;;;9.10;99.90;;;;;;4304853;33;20041;-88
2022/04/06 09:33:21;;;;;;;;;;;9.10;99.90;;;;;;4303861;33;45828;-88
2022/04/06 09:35:49;;;;;;;;;;;9.20;99.90;;;;;;4304073;33;45736;-88
2022/04/06 09:38:22;;;;;;;;;;;9.20;99.90;;;;;;4303554;33;44302;-88
2022/04/06 09:40:59;;;;;;;;;;;9.20;99.90;;;;;;4317268;33;43099;-88
2022/04/06 09:43:27;;;;;;;;;;;9.20;99.90;;;;;;4317024;33;44810;-88
2022/04/06 09:49:01;;;;;;;;;;;9.20;99.90;;;;;;4316732;33;44049;-88
2022/04/06 09:51:29;;;;;;;;;;;9.20;99.90;;;;;;4303525;33;44777;-89
2022/04/06 09:53:56;;;;;;;;;;;9.20;99.90;;;;;;4303586;33;45845;-88
2022/04/06 09:56:23;;;;;;;;;;;9.20;99.90;;;;;;4303614;33;44217;-88
2022/04/06 09:58:50;;;;;;;;;;;9.20;99.90;;;;;;4303215;33;44486;-88
2022/04/06 10:01:18;;;;;;;;;;;9.20;99.90;;;;;;4303520;33;20006;-88
2022/04/06 10:03:50;;;;;;;;;;;9.20;99.90;;;;;;4303000;33;45011;-87
2022/04/06 10:06:18;;;;;;;;;;;9.30;99.90;;;;;;4302923;33;43116;-88
2022/04/06 10:08:45;;;;;;;;;;;9.30;99.90;;;;;;4302928;33;44030;-87
2022/04/06 10:11:13;;;;;;;;;;;9.30;99.90;;;;;;4315980;33;44429;-88
2022/04/06 10:13:40;;;;;;;;;;;9.30;99.90;;;;;;4302911;33;43217;-87
2022/04/06 10:16:20;;;;;;;;;;;9.30;99.90;;;;;;4304495;33;43932;-87
2022/04/06 10:18:48;;;;;;;;;;;9.30;99.90;;;;;;4303239;33;45910;-87
2022/04/06 10:21:34;;;;;;;;;;;9.30;99.90;;;;;;4302816;33;44026;-85
2022/04/06 10:24:14;;;;;;;;;;;9.30;99.90;;;;;;4303030;33;45704;-87
2022/04/06 10:26:50;;;;;;;;;;;9.30;99.90;;;;;;4303142;33;44333;-87
2022/04/06 10:29:17;;;;;;;;;;;9.30;99.90;;;;;;4316350;33;43345;-86
2022/04/06 10:31:46;;;;;;;;;;;9.30;99.90;;;;;;4303427;33;20542;-87
2022/04/06 10:34:36;;;;;;;;;;;9.30;99.90;;;;;;4303212;33;44298;-87
2022/04/06 10:37:13;;;;;;;;;;;9.30;99.90;;;;;;4303265;33;45930;-88
2022/04/06 10:39:53;;;;;;;;;;;9.30;99.90;;;;;;4315859;33;44823;-87
2022/04/06 10:42:30;;;;;;;;;;;9.40;99.90;;;;;;4302649;33;43093;-88
2022/04/06 10:44:57;;;;;;;;;;;9.40;99.90;;;;;;4302621;33;44358;-88
2022/04/06 10:47:24;;;;;;;;;;;9.40;99.90;;;;;;4303069;33;45745;-88
2022/04/06 10:50:10;;;;;;;;;;;9.40;99.90;;;;;;4302911;33;41916;-87
2022/04/06 10:52:37;;;;;;;;;;;9.40;99.90;;;;;;4302899;33;45808;-87
2022/04/06 10:55:07;;;;;;;;;;;9.40;99.90;;;;;;4316014;33;44427;-87
2022/04/06 10:57:53;;;;;;;;;;;9.40;99.90;;;;;;4303157;33;43085;-87
2022/04/06 11:00:21;;;;;;;;;;;9.40;99.90;;;;;;4302447;33;44891;-87
2022/04/06 11:02:51;;;;;;;;;;;9.40;99.90;;;;;;4303359;33;20020;-88
2022/04/06 11:05:39;;;;;;;;;;;9.40;99.90;;;;;;4302615;33;44265;-87
2022/04/06 11:11:12;;;;;;;;;;;9.40;99.90;;;;;;4316034;33;44153;-87
2022/04/06 11:13:39;;;;;;;;;;;9.40;99.90;;;;;;4305100;33;45770;-87
2022/04/06 11:16:06;;;;;;;;;;;9.40;99.90;;;;;;4318301;33;43933;-87
2022/04/06 11:18:43;;;;;;;;;;;9.40;99.90;;;;;;4305295;33;45981;-87
2022/04/06 11:21:11;;;;;;;;;;;9.40;99.90;;;;;;4305225;33;44240;-87
2022/04/06 11:23:38;;;;;;;;;;;9.50;99.90;;;;;;4305302;33;45001;-88
2022/04/06 11:26:05;;;;;;;;;;;9.50;99.90;;;;;;4305165;33;45934;-87
2022/04/06 11:28:33;;;;;;;;;;;9.50;99.90;;;;;;4305122;33;42624;-87
2022/04/06 11:31:03;;;;;;;;;;;9.50;99.90;;;;;;4318096;33;45024;-87
2022/04/06 11:33:37;;;;;;;;;;;9.50;99.90;;;;;;4306690;33;20001;-87
2022/04/06 11:36:14;;;;;;;;;;;9.50;99.90;;;;;;4318515;33;43552;-87
2022/04/06 11:38:41;;;;;;;;;;;9.50;99.90;;;;;;4304982;33;44225;-87
2022/04/06 11:41:08;;;;;;;;;;;9.50;99.90;;;;;;4305324;33;44976;-87
2022/04/06 11:43:36;;;;;;;;;;;9.50;99.90;;;;;;4305328;33;44877;-87
2022/04/06 11:46:03;;;;;;;;;;;9.50;99.90;;;;;;4305253;33;43267;-87
2022/04/06 11:48:40;;;;;;;;;;;9.50;99.90;;;;;;4304805;33;44662;-88
2022/04/06 11:51:07;;;;;;;;;;;9.50;99.90;;;;;;4318235;33;42871;-87
2022/04/06 11:53:36;;;;;;;;;;;9.50;99.90;;;;;;4304666;33;45816;-87
2022/04/06 11:56:03;;;;;;;;;;;9.60;99.90;;;;;;4305154;33;44952;-87
2022/04/06 11:58:36;;;;;;;;;;;9.50;99.90;;;;;;4304991;33;44267;-88
2022/04/06 12:01:03;;;;;;;;;;;9.60;99.90;;;;;;4318297;33;44693;-88
2022/04/06 12:03:32;;;;;;;;;;;9.60;99.90;;;;;;4305689;33;22421;-88
2022/04/06 12:05:59;;;;;;;;;;;9.60;99.90;;;;;;4305180;33;44934;-89
2022/04/06 12:08:27;;;;;;;;;;;9.60;99.90;;;;;;4304668;33;45676;-88
2022/04/06 12:10:58;;;;;;;;;;;9.60;99.90;;;;;;4317691;33;45780;-88
2022/04/06 12:13:28;;;;;;;;;;;9.60;99.90;;;;;;4318369;33;44794;-88
2022/04/06 12:15:57;;;;;;;;;;;9.60;99.90;;;;;;4305410;33;43285;-88
2022/04/06 12:18:25;;;;;;;;;;;9.60;99.90;;;;;;4318270;33;45763;-89
2022/04/06 12:20:53;;;;;;;;;;;9.60;99.90;;;;;;4317991;33;44781;-89
2022/04/06 12:23:22;;;;;;;;;;;9.60;99.90;;;;;;4304834;33;44683;-89
2022/04/06 12:25:49;;;;;;;;;;;9.60;99.90;;;;;;4304848;33;42895;-89
2022/04/06 12:28:23;;;;;;;;;;;9.60;99.90;;;;;;4318243;33;45137;-89
2022/04/06 12:30:50;;;;;;;;;;;9.60;99.90;;;;;;4305393;33;44211;-89
2022/04/06 12:33:37;;;;;;;;;;;9.60;99.90;;;;;;4305006;33;45098;-89
2022/04/06 12:36:06;;;;;;;;;;;9.60;99.90;;;;;;4304898;33;44880;-89
2022/04/06 12:38:34;;;;;;;;;;;9.60;99.90;;;;;;4305258;33;44967;-89
2022/04/06 12:41:02;;;;;;;;;;;9.70;99.90;;;;;;4317875;33;45715;-90
2022/04/06 12:43:47;;;;;;;;;;;9.70;99.90;;;;;;4318337;33;44728;-90
2022/04/06 12:46:33;;;;;;;;;;;9.70;99.90;;;;;;4305449;33;44363;-89
2022/04/06 12:49:20;;;;;;;;;;;9.70;99.90;;;;;;4305242;33;44561;-89
2022/04/06 12:51:47;;;;;;;;;;;9.70;99.90;;;;;;4305174;33;43008;-89
2022/04/06 12:54:16;;;;;;;;;;;9.70;99.90;;;;;;4304980;33;44817;-89
2022/04/06 12:57:03;;;;;;;;;;;9.70;99.90;;;;;;4304805;33;45654;-89
2022/04/06 12:59:36;;;;;;;;;;;9.70;99.90;;;;;;4304901;33;44215;-90
2022/04/06 13:02:04;;;;;;;;;;;9.70;99.90;;;;;;4302848;33;43939;-89
2022/04/06 13:04:36;;;;;;;;;;;9.70;99.90;;;;;;4303403;33;44114;-90
2022/04/06 13:07:04;;;;;;;;;;;9.70;99.90;;;;;;4303751;33;44783;-90
2022/04/06 13:09:31;;;;;;;;;;;9.70;99.90;;;;;;4302276;33;43361;-91
2022/04/06 13:11:58;;;;;;;;;;;9.70;99.90;;;;;;4303333;33;45490;-90
2022/04/06 13:14:26;;;;;;;;;;;9.70;99.90;;;;;;4302709;33;44827;-90
2022/04/06 13:16:53;;;;;;;;;;;9.80;99.90;;;;;;4301943;33;45080;-89
2022/04/06 13:19:20;;;;;;;;;;;9.80;99.90;;;;;;4302066;33;43548;-90
2022/04/06 13:21:47;;;;;;;;;;;9.80;99.90;;;;;;4303217;33;44434;-90
2022/04/06 13:24:14;;;;;;;;;;;9.80;99.90;;;;;;4302547;33;44886;-90
2022/04/06 13:26:42;;;;;;;;;;;9.80;99.90;;;;;;4302251;33;42363;-90
2022/04/06 13:29:09;;;;;;;;;;;9.80;99.90;;;;;;4303245;33;43533;-89
2022/04/06 13:31:39;;;;;;;;;;;9.80;99.90;;;;;;4301947;33;44787;-90
2022/04/06 13:34:07;;;;;;;;;;;9.80;99.90;;;;;;4302093;33;43241;-89
2022/04/06 13:36:34;;;;;;;;;;;9.80;99.90;;;;;;4301041;33;43204;-89
2022/04/06 13:39:01;;;;;;;;;;;9.80;99.90;;;;;;4301897;33;45695;-89
2022/04/06 13:41:28;;;;;;;;;;;9.80;99.90;;;;;;4301975;33;44207;-90
2022/04/06 13:43:55;;;;;;;;;;;9.80;99.90;;;;;;4302085;33;43896;-88
2022/04/06 13:46:22;;;;;;;;;;;9.80;99.90;;;;;;4301660;33;44025;-90
2022/04/06 13:48:51;;;;;;;;;;;9.80;99.90;;;;;;4302560;33;43283;-90
2022/04/06 13:51:19;;;;;;;;;;;9.80;99.90;;;;;;4302742;33;42759;-90
2022/04/06 13:53:46;;;;;;;;;;;9.80;99.90;;;;;;4301382;33;43023;-89
2022/04/06 13:56:13;;;;;;;;;;;9.80;99.90;;;;;;4301769;33;44073;-89
2022/04/06 13:58:40;;;;;;;;;;;9.90;99.90;;;;;;4300962;33;42634;-88
2022/04/06 14:01:07;;;;;;;;;;;9.80;99.90;;;;;;4300838;33;43955;-88
2022/04/06 14:03:34;;;;;;;;;;;9.90;99.90;;;;;;4300671;33;45011;-89
2022/04/06 14:06:01;;;;;;;;;;;9.90;99.90;;;;;;4301860;33;43018;-88
2022/04/06 14:08:30;;;;;;;;;;;9.90;99.90;;;;;;4300624;33;43456;-88
2022/04/06 14:10:58;;;;;;;;;;;9.90;99.90;;;;;;4300630;33;43179;-88
2022/04/06 14:13:25;;;;;;;;;;;9.90;99.90;;;;;;4301097;33;43296;-89
2022/04/06 14:15:55;;;;;;;;;;;9.90;99.90;;;;;;4301024;33;45028;-87
2022/04/06 14:18:22;;;;;;;;;;;9.90;99.90;;;;;;4301561;33;44183;-89
2022/04/06 14:20:49;;;;;;;;;;;9.90;99.90;;;;;;4300450;33;44034;-88
2022/04/06 14:23:16;;;;;;;;;;;9.90;99.90;;;;;;4300699;33;44208;-88
2022/04/06 14:25:48;;;;;;;;;;;9.90;99.90;;;;;;4300898;33;45790;-88
2022/04/06 14:28:15;;;;;;;;;;;9.90;99.90;;;;;;4301712;33;43501;-89
2022/04/06 14:30:48;;;;;;;;;;;9.90;99.90;;;;;;4300806;33;45990;-89
2022/04/06 14:33:16;;;;;;;;;;;9.90;99.90;;;;;;4300886;33;45716;-88
2022/04/06 14:35:44;;;;;;;;;;;9.90;99.90;;;;;;4300476;33;42869;-89
2022/04/06 14:38:12;;;;;;;;;;;9.90;99.90;;;;;;4300415;33;45260;-89
2022/04/06 14:40:39;;;;;;;;;;;9.90;99.90;;;;;;4300954;33;44693;-86
2022/04/06 14:43:07;;;;;;;;;;;9.90;99.90;;;;;;4301832;33;43931;-89
2022/04/06 14:45:34;;;;;;;;;;;10.00;99.90;;;;;;4300710;33;46137;-89
2022/04/06 14:48:01;;;;;;;;;;;10.00;99.90;;;;;;4300193;33;44747;-88